Time;durP1;ratioP1;P1;durP2;ratioP2;P2;SDS_P1;SDS_P2;PMS_P1;PMS_P2;Temp;Humidity;BMP_temperature;BMP_pressure;BME280_temperature;BME280_humidity;BME280_pressure;Samples;Min_cycle;Max_cycle;Signal;HPM_P1;HPM_P2
2022/06/25 00:00:54;;;;;;;1999.90;999.90;;;;;;;15.67;100.00;90687.78;5072603;28;20186;-61
2022/06/25 00:03:20;;;;;;;1999.90;999.90;;;;;;;15.66;100.00;90683.56;5072416;28;20189;-62
2022/06/25 00:05:46;;;;;;;1999.90;999.90;;;;;;;15.65;100.00;90684.84;5072295;28;20186;-59
2022/06/25 00:08:11;;;;;;;1999.90;999.90;;;;;;;15.66;100.00;90689.06;5072347;28;20285;-59
2022/06/25 00:10:37;;;;;;;1999.90;999.90;;;;;;;15.82;100.00;90682.28;5072268;28;20190;-55
2022/06/25 00:13:02;;;;;;;1999.90;999.90;;;;;;;15.76;100.00;90695.47;5072049;28;20296;-56
2022/06/25 00:15:27;;;;;;;1999.90;999.90;;;;;;;15.73;100.00;90713.09;5072163;28;20189;-55
2022/06/25 00:17:53;;;;;;;1999.90;999.90;;;;;;;15.74;100.00;90724.81;5071995;28;20292;-55
2022/06/25 00:20:18;;;;;;;1999.90;999.90;;;;;;;15.73;100.00;90746.09;5071913;28;20216;-54
2022/06/25 00:22:44;;;;;;;1999.90;999.90;;;;;;;15.77;100.00;90734.72;5072514;28;20189;-55
2022/06/25 00:25:09;;;;;;;1999.90;999.90;;;;;;;15.79;100.00;90743.91;5055573;28;20190;-55
2022/06/25 00:27:35;;;;;;;1999.90;999.90;;;;;;;15.78;100.00;90753.41;5055279;28;20219;-55
2022/06/25 00:30:00;;;;;;;1999.90;999.90;;;;;;;15.82;100.00;90756.56;5072079;28;20190;-55
2022/06/25 00:32:25;;;;;;;1999.90;999.90;;;;;;;15.85;100.00;90760.94;5072336;28;20190;-55
2022/06/25 00:34:51;;;;;;;1999.90;999.90;;;;;;;15.85;100.00;90769.19;5072372;28;20615;-52
2022/06/25 00:37:16;;;;;;;1999.90;999.90;;;;;;;15.87;100.00;90769.38;5054953;28;20193;-54
2022/06/25 00:39:44;;;;;;;1999.90;999.90;;;;;;;15.88;100.00;90750.88;5071951;28;20279;-52
2022/06/25 00:42:11;;;;;;;1999.90;999.90;;;;;;;15.91;100.00;90734.00;5055060;28;20190;-50
2022/06/25 00:44:36;;;;;;;1999.90;999.90;;;;;;;15.86;100.00;90748.66;5071601;28;20250;-56
2022/06/25 00:47:03;;;;;;;1999.90;999.90;;;;;;;15.86;100.00;90748.66;5054830;28;20242;-62
2022/06/25 00:49:28;;;;;;;1999.90;999.90;;;;;;;15.89;100.00;90755.09;5054897;28;20185;-62
2022/06/25 00:51:56;;;;;;;1999.90;999.90;;;;;;;15.86;100.00;90765.19;5072358;28;20182;-62
2022/06/25 00:54:24;;;;;;;1999.90;999.90;;;;;;;15.88;100.00;90762.59;5071291;28;20213;-62
2022/06/25 00:56:51;;;;;;;1999.90;999.90;;;;;;;15.88;100.00;90762.59;5071665;28;20227;-62
2022/06/25 00:59:26;;;;;;;1999.90;999.90;;;;;;;15.89;100.00;90760.59;5054870;28;20192;-62
2022/06/25 01:01:52;;;;;;;1999.90;999.90;;;;;;;15.86;100.00;90765.19;5055139;28;20186;-56
2022/06/25 01:04:17;;;;;;;1999.90;999.90;;;;;;;15.89;100.00;90769.56;5071945;28;20670;-55
2022/06/25 01:06:43;;;;;;;1999.90;999.90;;;;;;;15.84;100.00;90775.97;5054362;28;20182;-54
2022/06/25 01:09:09;;;;;;;1999.90;999.90;;;;;;;15.89;100.00;90775.06;5070621;28;20205;-56
2022/06/25 01:11:36;;;;;;;1999.90;999.90;;;;;;;15.88;100.00;90776.34;5071230;28;20266;-57
2022/06/25 01:14:11;;;;;;;1999.90;999.90;;;;;;;15.87;100.00;90790.66;5054628;28;20217;-56
2022/06/25 01:16:37;;;;;;;1999.90;999.90;;;;;;;15.87;100.00;90794.16;5071399;28;20189;-56
2022/06/25 01:19:10;;;;;;;1999.90;999.90;;;;;;;15.87;100.00;90799.66;5054723;28;20232;-57
2022/06/25 01:21:36;;;;;;;1999.90;999.90;;;;;;;15.86;100.00;90809.19;5054211;28;20194;-57
2022/06/25 01:24:05;;;;;;;1999.90;999.90;;;;;;;15.86;100.00;90820.19;5054639;28;20185;-63
2022/06/25 01:26:36;;;;;;;1999.90;999.90;;;;;;;15.87;100.00;90832.66;5054311;28;20198;-62
2022/06/25 01:29:03;;;;;;;1999.90;999.90;;;;;;;15.89;100.00;90845.88;5054270;28;20220;-64
2022/06/25 01:31:29;;;;;;;1999.90;999.90;;;;;;;15.92;100.00;90851.00;5070973;28;20285;-63
2022/06/25 01:33:54;;;;;;;1999.90;999.90;;;;;;;15.90;100.00;90861.84;5071379;28;20255;-62
2022/06/25 01:36:20;;;;;;;1999.90;999.90;;;;;;;15.88;100.00;90885.69;5071289;28;20198;-62
2022/06/25 01:38:45;;;;;;;1999.90;999.90;;;;;;;15.92;100.00;90884.03;5070738;28;20210;-57
2022/06/25 01:41:11;;;;;;;1999.90;999.90;;;;;;;15.96;100.00;90891.94;5070920;28;20242;-57
2022/06/25 01:43:36;;;;;;;1999.90;999.90;;;;;;;15.96;100.00;90906.41;5070965;28;20174;-51
2022/06/25 01:46:04;;;;;;;1999.90;999.90;;;;;;;15.98;100.00;90914.88;5070993;28;20188;-53
2022/06/25 01:48:29;;;;;;;1999.90;999.90;;;;;;;16.01;100.00;90922.03;5070939;28;20193;-54
2022/06/25 01:50:54;;;;;;;1999.90;999.90;;;;;;;16.05;100.00;90935.41;5053874;28;20193;-55
2022/06/25 01:53:20;;;;;;;1999.90;999.90;;;;;;;16.02;100.00;90942.75;5070429;28;20219;-53
2022/06/25 01:55:45;;;;;;;1999.90;999.90;;;;;;;15.98;100.00;90969.16;5070674;28;20198;-55
2022/06/25 01:58:11;;;;;;;1999.90;999.90;;;;;;;16.00;100.00;90967.31;5070704;28;20190;-61
2022/06/25 02:00:37;;;;;;;1999.90;999.90;;;;;;;16.02;100.00;90973.03;5070686;28;20229;-59
2022/06/25 02:03:02;;;;;;;1999.90;999.90;;;;;;;16.02;100.00;90980.53;5070452;28;20190;-58
2022/06/25 02:08:13;;;;;;;1999.90;999.90;;;;;;;15.99;100.00;90998.88;5055425;28;20269;-58
2022/06/25 02:10:40;;;;;;;1999.90;999.90;;;;;;;16.00;100.00;90994.84;5053787;28;20208;-57
2022/06/25 02:13:06;;;;;;;1999.90;999.90;;;;;;;15.98;100.00;91002.91;5053636;28;20229;-56
2022/06/25 02:15:32;;;;;;;1999.90;999.90;;;;;;;16.00;100.00;91007.88;5070285;28;20194;-56
2022/06/25 02:17:58;;;;;;;1999.90;999.90;;;;;;;16.06;100.00;91013.94;5070275;28;20194;-54
2022/06/25 02:20:24;;;;;;;1999.90;999.90;;;;;;;16.05;100.00;91015.22;5070123;28;20186;-56
2022/06/25 02:22:50;;;;;;;1999.90;999.90;;;;;;;16.06;100.00;91025.69;5070228;28;20224;-57
2022/06/25 02:25:15;;;;;;;1999.90;999.90;;;;;;;16.07;100.00;91027.16;5070272;28;20288;-57
2022/06/25 02:27:40;;;;;;;1999.90;999.90;;;;;;;16.07;100.00;91035.41;5070292;28;20225;-58
2022/06/25 02:30:10;;;;;;;1999.90;999.90;;;;;;;16.08;100.00;91045.16;5070164;28;20190;-59
2022/06/25 02:32:36;;;;;;;1999.90;999.90;;;;;;;16.08;100.00;91053.44;5053408;28;20193;-56
2022/06/25 02:35:01;;;;;;;1999.90;999.90;;;;;;;16.09;100.00;91062.41;5070157;28;20192;-58
2022/06/25 02:37:27;;;;;;;1999.90;999.90;;;;;;;16.06;100.00;91058.72;5053443;28;20196;-55
2022/06/25 02:39:52;;;;;;;1999.90;999.90;;;;;;;16.04;100.00;91064.06;5053081;28;20198;-56
2022/06/25 02:42:18;;;;;;;1999.90;999.90;;;;;;;15.98;100.00;91074.47;5070329;28;20190;-56
2022/06/25 02:44:43;;;;;;;1999.90;999.90;;;;;;;15.98;100.00;91071.72;5053052;28;20196;-55
2022/06/25 02:47:09;;;;;;;1999.90;999.90;;;;;;;15.99;100.00;91070.44;5069897;28;20185;-55
2022/06/25 02:49:34;;;;;;;1999.90;999.90;;;;;;;15.97;100.00;91072.25;5069851;28;20188;-54
2022/06/25 02:52:00;;;;;;;1999.90;999.90;;;;;;;15.92;100.00;91093.13;5070214;28;20202;-63
2022/06/25 02:54:25;;;;;;;1999.90;999.90;;;;;;;15.93;100.00;91089.13;5069825;28;20259;-57
2022/06/25 02:59:41;;;;;;;1999.90;999.90;;;;;;;15.93;100.00;91088.38;5054570;28;20284;-62
2022/06/25 03:02:07;;;;;;;1999.90;999.90;;;;;;;15.87;100.00;91107.03;5069539;28;20182;-62
2022/06/25 03:04:33;;;;;;;1999.90;999.90;;;;;;;15.86;100.00;91111.81;5052700;28;20194;-61
2022/06/25 03:06:58;;;;;;;1999.90;999.90;;;;;;;15.86;100.00;91111.81;5069720;28;20224;-61
2022/06/25 03:09:24;;;;;;;1999.90;999.90;;;;;;;15.90;100.00;91111.47;5069496;28;20254;-62
2022/06/25 03:11:49;;;;;;;1999.90;999.90;;;;;;;15.88;100.00;91114.75;5069512;28;20189;-60
2022/06/25 03:14:16;;;;;;;1999.90;999.90;;;;;;;15.93;100.00;91113.91;5052753;28;20349;-61
2022/06/25 03:16:42;;;;;;;1999.90;999.90;;;;;;;15.97;100.00;91111.53;5069836;28;20189;-61
2022/06/25 03:19:08;;;;;;;1999.90;999.90;;;;;;;15.97;100.00;91116.28;5052526;28;20249;-61
2022/06/25 03:21:34;;;;;;;1999.90;999.90;;;;;;;15.92;100.00;91120.66;5069367;28;20190;-60
2022/06/25 03:23:59;;;;;;;1999.90;999.90;;;;;;;15.96;100.00;91126.53;5052759;28;20197;-60
2022/06/25 03:26:25;;;;;;;1999.90;999.90;;;;;;;15.98;100.00;91129.50;5069105;28;20177;-61
2022/06/25 03:28:50;;;;;;;1999.90;999.90;;;;;;;15.98;100.00;91134.25;5069356;28;20243;-61
2022/06/25 03:31:16;;;;;;;1999.90;999.90;;;;;;;15.98;100.00;91132.25;5068039;28;20220;-62
2022/06/25 03:33:41;;;;;;;1999.90;999.90;;;;;;;16.01;100.00;91138.69;5069196;28;20205;-56
2022/06/25 03:36:07;;;;;;;1999.90;999.90;;;;;;;16.05;100.00;91142.56;5069072;28;20178;-57
2022/06/25 03:38:32;;;;;;;1999.90;999.90;;;;;;;16.08;100.00;91138.75;5069209;28;20205;-57
2022/06/25 03:43:41;;;;;;;1999.90;999.90;;;;;;;16.11;100.00;91143.16;5053799;28;20193;-57
2022/06/25 03:46:07;;;;;;;1999.90;999.90;;;;;;;16.14;100.00;91146.84;5068981;28;20185;-56
2022/06/25 03:48:32;;;;;;;1999.90;999.90;;;;;;;16.16;100.00;91153.28;5069536;28;20196;-57
2022/06/25 03:50:58;;;;;;;1999.90;999.90;;;;;;;16.18;100.00;91147.25;5069292;28;20200;-58
2022/06/25 03:53:23;;;;;;;1999.90;999.90;;;;;;;16.19;100.00;91154.97;5068783;28;20218;-57
2022/06/25 03:55:48;;;;;;;1999.90;999.90;;;;;;;16.21;100.00;91166.16;5052185;28;20278;-57
2022/06/25 03:58:14;;;;;;;1999.90;999.90;;;;;;;16.23;100.00;91166.34;5068767;28;20248;-57
2022/06/25 04:00:39;;;;;;;1999.90;999.90;;;;;;;16.29;100.00;91168.97;5052121;28;20212;-58
2022/06/25 04:03:04;;;;;;;1999.90;999.90;;;;;;;16.34;100.00;91170.81;5068440;28;20217;-58
2022/06/25 04:05:31;;;;;;;1999.90;999.90;;;;;;;16.36;100.00;91177.25;5068654;28;20186;-58
2022/06/25 04:07:56;;;;;;;1999.90;999.90;;;;;;;16.42;100.00;91170.88;5051901;28;20194;-57
2022/06/25 04:10:21;;;;;;;1999.90;999.90;;;;;;;16.46;100.00;91171.28;5068658;28;20198;-57
2022/06/25 04:12:47;;;;;;;1999.90;999.90;;;;;;;16.50;100.00;91171.66;5068621;28;20296;-58
2022/06/25 04:15:12;;;;;;;1999.90;999.90;;;;;;;16.54;100.00;91183.06;5068586;28;20186;-57
2022/06/25 04:17:38;;;;;;;1999.90;999.90;;;;;;;16.59;100.00;91195.94;5069111;28;20280;-57
2022/06/25 04:20:03;;;;;;;1999.90;999.90;;;;;;;16.63;100.00;91201.81;5068784;28;20247;-57
2022/06/25 04:22:29;;;;;;;1999.90;999.90;;;;;;;16.62;100.00;91227.91;5052150;28;20248;-57
2022/06/25 04:24:54;;;;;;;1999.90;999.90;;;;;;;16.63;100.00;91235.63;5051860;28;20190;-58
2022/06/25 04:30:04;;;;;;;1999.90;999.90;;;;;;;16.73;100.00;91266.16;5053417;28;20207;-58
2022/06/25 04:32:29;;;;;;;1999.90;999.90;;;;;;;16.74;100.00;91297.94;5051697;28;20170;-56
2022/06/25 04:34:55;;;;;;;1999.90;999.90;;;;;;;16.80;100.00;91312.31;5051687;28;20178;-57
2022/06/25 04:37:20;;;;;;;1999.90;999.90;;;;;;;16.84;100.00;91332.00;5068207;28;20214;-57
2022/06/25 04:39:46;;;;;;;1999.90;999.90;;;;;;;16.86;100.00;91352.22;5051386;28;20206;-59
2022/06/25 04:42:11;;;;;;;1999.90;999.90;;;;;;;16.90;100.00;91368.41;5069835;28;20190;-65
2022/06/25 04:44:36;;;;;;;1999.90;999.90;;;;;;;16.93;100.00;91392.16;5072042;28;20186;-58
2022/06/25 04:47:02;;;;;;;1999.90;999.90;;;;;;;16.97;100.00;91415.31;5071680;28;20188;-58
2022/06/25 04:49:27;;;;;;;1999.90;999.90;;;;;;;16.99;100.00;91450.59;5071254;28;20235;-59
2022/06/25 04:51:53;;;;;;;1999.90;999.90;;;;;;;17.11;100.00;91471.13;5071917;28;20200;-58
2022/06/25 04:54:18;;;;;;;1999.90;999.90;;;;;;;17.08;100.00;91517.03;5071331;28;20292;-58
2022/06/25 04:56:44;;;;;;;1999.90;999.90;;;;;;;17.15;100.00;91549.44;5054599;28;20212;-58
2022/06/25 04:59:09;;;;;;;1999.90;999.90;;;;;;;17.19;100.00;91593.25;5071660;28;20186;-58
2022/06/25 05:01:35;;;;;;;1999.90;999.90;;;;;;;17.16;100.00;91621.88;5071409;28;20186;-65
2022/06/25 05:04:00;;;;;;;1999.90;999.90;;;;;;;17.25;100.00;91646.22;5055020;28;20185;-62
2022/06/25 05:06:25;;;;;;;1999.90;999.90;;;;;;;17.27;100.00;91668.50;5071290;28;20178;-61
2022/06/25 05:08:51;;;;;;;1999.90;999.90;;;;;;;17.37;100.00;91686.81;5072063;28;20185;-62
2022/06/25 05:11:17;;;;;;;1999.90;999.90;;;;;;;17.40;100.00;91696.00;5071472;28;20181;-62
2022/06/25 05:13:43;;;;;;;1999.90;999.90;;;;;;;17.54;100.00;91711.28;5071652;28;20206;-61
2022/06/25 05:16:08;;;;;;;1999.90;999.90;;;;;;;17.57;100.00;91744.06;5071657;28;20250;-62
2022/06/25 05:18:34;;;;;;;1999.90;999.90;;;;;;;17.74;100.00;91754.72;5071141;28;20208;-60
2022/06/25 05:21:00;;;;;;;1999.90;999.90;;;;;;;17.89;100.00;91771.41;5055040;28;20193;-57
2022/06/25 05:23:26;;;;;;;1999.90;999.90;;;;;;;17.98;100.00;91826.16;5071079;28;20185;-57
2022/06/25 05:25:51;;;;;;;1999.90;999.90;;;;;;;18.05;100.00;91886.25;5071189;28;20221;-58
2022/06/25 05:28:17;;;;;;;1999.90;999.90;;;;;;;18.24;100.00;91922.72;5071041;28;20193;-58
2022/06/25 05:30:43;;;;;;;1999.90;999.90;;;;;;;18.34;100.00;91979.00;5071287;28;20194;-58
2022/06/25 05:33:08;;;;;;;1999.90;999.90;;;;;;;18.46;100.00;92032.78;5054272;28;20293;-58
2022/06/25 05:35:34;;;;;;;1999.90;999.90;;;;;;;18.65;100.00;92085.91;5054049;28;20193;-58
2022/06/25 05:37:59;;;;;;;1999.90;999.90;;;;;;;18.86;100.00;92139.22;5053774;28;20263;-58
2022/06/25 05:40:24;;;;;;;1999.90;999.90;;;;;;;19.08;100.00;92199.59;5070635;28;20197;-58
2022/06/25 05:42:50;;;;;;;1999.90;999.90;;;;;;;19.20;100.00;92279.06;5070772;28;20237;-58
2022/06/25 05:45:15;;;;;;;1999.90;999.90;;;;;;;19.46;100.00;92362.09;5070843;28;20186;-58
2022/06/25 05:47:40;;;;;;;1999.90;999.90;;;;;;;19.66;100.00;92490.13;5070652;28;20239;-58
2022/06/25 05:50:07;;;;;;;1999.90;999.90;;;;;;;20.00;100.00;92540.81;5070716;28;20193;-58
2022/06/25 05:52:33;;;;;;;1999.90;999.90;;;;;;;20.16;100.00;92643.06;5070702;28;20210;-58
2022/06/25 05:54:59;;;;;;;1999.90;999.90;;;;;;;20.42;100.00;92709.63;5054279;28;20216;-57
2022/06/25 05:57:24;;;;;;;1999.90;999.90;;;;;;;20.62;100.00;92855.28;5070800;28;20272;-57
2022/06/25 05:59:50;;;;;;;1999.90;999.90;;;;;;;20.78;100.00;92952.09;5070489;28;20655;-56
2022/06/25 06:02:16;;;;;;;1999.90;999.90;;;;;;;20.96;100.00;93045.69;5054781;28;20201;-56
2022/06/25 06:04:42;;;;;;;1999.90;999.90;;;;;;;20.89;100.00;93171.16;5071243;28;20178;-54
2022/06/25 06:07:07;;;;;;;1999.90;999.90;;;;;;;20.96;100.00;93214.25;5070199;28;20194;-53
2022/06/25 06:09:32;;;;;;;1999.90;999.90;;;;;;;21.04;100.00;93268.66;5053496;28;20182;-53
2022/06/25 06:11:58;;;;;;;1999.90;999.90;;;;;;;20.93;100.00;93332.63;5070291;28;20190;-52
2022/06/25 06:14:24;;;;;;;1999.90;999.90;;;;;;;20.89;100.00;93357.13;5070488;28;20260;-57
2022/06/25 06:16:50;;;;;;;1999.90;999.90;;;;;;;20.73;100.00;93371.91;5070078;28;20288;-58
2022/06/25 06:19:15;;;;;;;1999.90;999.90;;;;;;;20.63;100.00;93412.34;5053834;28;20192;-60
2022/06/25 06:21:40;;;;;;;1999.90;999.90;;;;;;;20.73;100.00;93383.00;5070332;28;20194;-59
2022/06/25 06:24:06;;;;;;;1999.90;999.90;;;;;;;20.69;100.00;93406.75;5070214;28;20192;-60
2022/06/25 06:26:33;;;;;;;1999.90;999.90;;;;;;;20.70;100.00;93422.88;5070033;28;20193;-60
2022/06/25 06:28:58;;;;;;;1999.90;999.90;;;;;;;20.68;100.00;93444.09;5053509;28;20181;-59
2022/06/25 06:31:23;;;;;;;1999.90;999.90;;;;;;;20.76;100.00;93443.00;5070321;28;20193;-60
2022/06/25 06:33:49;;;;;;;1999.90;999.90;;;;;;;20.61;100.00;93464.81;5069867;28;20209;-63
2022/06/25 06:36:14;;;;;;;1999.90;999.90;;;;;;;20.66;100.00;93475.13;5053111;28;20182;-58
2022/06/25 06:38:40;;;;;;;1999.90;999.90;;;;;;;20.80;100.00;93482.31;5070041;28;20205;-58
2022/06/25 06:41:05;;;;;;;1999.90;999.90;;;;;;;20.99;100.00;93505.44;5069772;28;20190;-57
2022/06/25 06:43:30;;;;;;;1999.90;999.90;;;;;;;21.01;100.00;93518.81;5069965;28;20226;-58
2022/06/25 06:45:56;;;;;;;1999.90;999.90;;;;;;;21.10;100.00;93490.72;5070120;28;20189;-57
2022/06/25 06:48:22;;;;;;;1999.90;999.90;;;;;;;21.07;100.00;93517.50;5070150;28;20186;-58
2022/06/25 06:50:47;;;;;;;1999.90;999.90;;;;;;;21.31;100.00;93519.56;5053740;28;20178;-58
2022/06/25 06:53:13;;;;;;;1999.90;999.90;;;;;;;21.48;100.00;93562.59;5069526;28;20210;-60
2022/06/25 06:55:38;;;;;;;1999.90;999.90;;;;;;;21.52;100.00;93604.72;5069470;28;20274;-64
2022/06/25 06:58:04;;;;;;;1999.90;999.90;;;;;;;21.75;100.00;93622.75;5052880;28;20178;-64
2022/06/25 07:00:29;;;;;;;1999.90;999.90;;;;;;;21.93;100.00;93665.84;5069550;28;20235;-64
2022/06/25 07:02:54;;;;;;;1999.90;999.90;;;;;;;22.06;100.00;93675.06;5069656;28;20184;-64
2022/06/25 07:05:20;;;;;;;1999.90;999.90;;;;;;;22.41;100.00;93652.69;5069442;28;20181;-65
2022/06/25 07:07:47;;;;;;;1999.90;999.90;;;;;;;22.55;100.00;93728.00;5069256;28;20387;-64
2022/06/25 07:10:13;;;;;;;1999.90;999.90;;;;;;;22.70;100.00;93756.94;5053733;28;20189;-57
2022/06/25 07:12:39;;;;;;;1999.90;999.90;;;;;;;22.95;100.00;93791.13;5069196;28;20185;-57
2022/06/25 07:15:05;;;;;;;1999.90;999.90;;;;;;;23.24;100.00;93804.25;5069034;28;20263;-58
2022/06/25 07:17:30;;;;;;;1999.90;999.90;;;;;;;23.53;100.00;93859.88;5069285;28;20185;-58
2022/06/25 07:19:55;;;;;;;1999.90;999.90;;;;;;;23.79;100.00;93867.72;5069199;28;20189;-59
2022/06/25 07:22:21;;;;;;;1999.90;999.90;;;;;;;24.02;100.00;93947.06;5069428;28;20189;-58
2022/06/25 07:24:46;;;;;;;1999.90;999.90;;;;;;;24.13;100.00;93977.63;5069433;28;20194;-57
2022/06/25 07:27:11;;;;;;;1999.90;999.90;;;;;;;24.47;100.00;94045.75;5069485;28;20173;-58
2022/06/25 07:29:37;;;;;;;1999.90;999.90;;;;;;;24.59;100.00;94047.09;5069237;28;20204;-69
2022/06/25 07:32:02;;;;;;;1999.90;999.90;;;;;;;24.86;100.00;94082.31;5068989;28;20188;-57
2022/06/25 07:34:28;;;;;;;1999.90;999.90;;;;;;;25.09;100.00;94150.59;5069179;28;20205;-57
2022/06/25 07:36:53;;;;;;;1999.90;999.90;;;;;;;25.54;100.00;94218.66;5052239;28;20217;-58
2022/06/25 07:39:18;;;;;;;1999.90;999.90;;;;;;;26.06;100.00;94265.78;5069121;28;20263;-58
2022/06/25 07:41:44;;;;;;;1999.90;999.90;;;;;;;26.21;100.00;94291.25;5052351;28;20178;-58
2022/06/25 07:44:09;;;;;;;1999.90;999.90;;;;;;;26.66;100.00;94393.72;5069618;28;20173;-59
2022/06/25 07:46:35;;;;;;;1999.90;999.90;;;;;;;26.46;100.00;94458.69;5068819;28;20190;-58
2022/06/25 07:49:00;;;;;;;1999.90;999.90;;;;;;;26.65;100.00;94431.44;5068774;28;20182;-58
2022/06/25 07:54:10;;;;;;;1999.90;999.90;;;;;;;28.60;100.00;94694.47;5053378;28;20229;-61
2022/06/25 07:56:35;;;;;;;1999.90;999.90;;;;;;;29.79;100.00;94697.50;5052156;28;20225;-59
2022/06/25 07:59:01;;;;;;;1999.90;999.90;;;;;;;31.38;91.69;94932.72;5068833;28;20272;-59
2022/06/25 08:01:26;;;;;;;1999.90;999.90;;;;;;;32.68;73.61;95097.94;5068653;28;20182;-59
2022/06/25 08:03:51;;;;;;;1999.90;999.90;;;;;;;33.20;70.57;95143.56;5068781;28;20186;-61
2022/06/25 08:06:17;;;;;;;1999.90;999.90;;;;;;;32.93;68.25;95176.25;5068902;28;20182;-60
2022/06/25 08:08:42;;;;;;;1999.90;999.90;;;;;;;33.22;65.76;95191.91;5068428;28;20249;-61
2022/06/25 08:11:08;;;;;;;1999.90;999.90;;;;;;;32.81;64.44;95211.78;5068792;28;20182;-61
2022/06/25 08:13:35;;;;;;;1999.90;999.90;;;;;;;33.33;60.93;95230.50;5051887;28;20206;-60
2022/06/25 08:16:00;;;;;;;1999.90;999.90;;;;;;;34.31;54.38;95247.97;5068342;28;20189;-60
2022/06/25 08:18:25;;;;;;;1999.90;999.90;;;;;;;34.30;51.99;95255.00;5072137;28;20193;-60
2022/06/25 08:20:51;;;;;;;1999.90;999.90;;;;;;;34.98;47.61;95261.56;5055105;28;20186;-61
2022/06/25 08:23:16;;;;;;;1999.90;999.90;;;;;;;35.11;47.75;95258.53;5072058;28;20201;-61
2022/06/25 08:25:42;;;;;;;1999.90;999.90;;;;;;;36.00;44.76;95262.56;5071971;28;20178;-58
2022/06/25 08:28:07;;;;;;;1999.90;999.90;;;;;;;36.15;43.61;95262.47;5071948;28;20239;-59
2022/06/25 08:30:33;;;;;;;1999.90;999.90;;;;;;;36.50;41.31;95264.22;5071774;28;20188;-58
2022/06/25 08:32:59;;;;;;;1999.90;999.90;;;;;;;36.62;40.67;95256.75;5071767;28;20281;-58
2022/06/25 08:35:24;;;;;;;1999.90;999.90;;;;;;;36.53;40.11;95257.38;5071773;28;20269;-57
2022/06/25 08:37:50;;;;;;;1999.90;999.90;;;;;;;36.01;39.60;95253.44;5071392;28;20296;-58
2022/06/25 08:40:17;;;;;;;1999.90;999.90;;;;;;;36.64;40.63;95257.66;5055451;28;20206;-58
2022/06/25 08:42:43;;;;;;;1999.90;999.90;;;;;;;36.25;38.24;95260.56;5054958;28;20268;-63
2022/06/25 08:45:09;;;;;;;1999.90;999.90;;;;;;;35.61;41.77;95251.88;5071897;28;20280;-59
2022/06/25 08:47:42;;;;;;;1999.90;999.90;;;;;;;34.13;42.03;95257.56;5072054;28;20182;-58
2022/06/25 08:50:10;;;;;;;1999.90;999.90;;;;;;;35.08;42.51;95253.97;5071638;28;20185;-59
2022/06/25 08:52:37;;;;;;;1999.90;999.90;;;;;;;35.21;42.51;95251.69;5054959;28;20200;-59
2022/06/25 08:55:03;;;;;;;1999.90;999.90;;;;;;;35.70;42.24;95245.56;5055241;28;20182;-60
2022/06/25 08:57:29;;;;;;;1999.90;999.90;;;;;;;35.68;40.94;95236.84;5055192;28;20192;-59
2022/06/25 08:59:55;;;;;;;1999.90;999.90;;;;;;;34.92;42.25;95238.28;5054768;28;20189;-61
2022/06/25 09:02:20;;;;;;;1999.90;999.90;;;;;;;33.28;46.85;95232.16;5054821;28;20178;-62
2022/06/25 09:04:46;;;;;;;1999.90;999.90;;;;;;;32.20;52.35;95238.00;5071529;28;20205;-60
2022/06/25 09:07:13;;;;;;;1999.90;999.90;;;;;;;32.95;52.86;95227.41;5071324;28;20232;-61
2022/06/25 09:09:39;;;;;;;1999.90;999.90;;;;;;;33.31;51.13;95228.22;5055583;28;20185;-60
2022/06/25 09:12:08;;;;;;;1999.90;999.90;;;;;;;32.97;51.94;95224.03;5054911;28;20211;-60
2022/06/25 09:14:35;;;;;;;1999.90;999.90;;;;;;;33.91;47.73;95229.91;5054534;28;20205;-61
2022/06/25 09:17:06;;;;;;;1999.90;999.90;;;;;;;33.71;48.42;95234.31;5055095;28;20189;-60
2022/06/25 09:19:39;;;;;;;1999.90;999.90;;;;;;;32.09;47.78;95238.25;5054855;28;20238;-65
2022/06/25 09:22:20;;;;;;;1999.90;999.90;;;;;;;30.73;57.23;95229.16;5071112;28;20190;-65
2022/06/25 09:24:55;;;;;;;1999.90;999.90;;;;;;;30.90;59.90;95224.75;5054101;28;20196;-67
2022/06/25 09:27:33;;;;;;;1999.90;999.90;;;;;;;30.29;62.35;95216.56;5071296;28;20204;-66
2022/06/25 09:30:16;;;;;;;1999.90;999.90;;;;;;;31.67;62.18;95219.63;5070328;28;20212;-66
2022/06/25 09:32:41;;;;;;;1999.90;999.90;;;;;;;33.52;54.80;95228.94;5054172;28;20178;-65
2022/06/25 09:35:07;;;;;;;1999.90;999.90;;;;;;;33.56;53.61;95228.56;5071023;28;20182;-64
2022/06/25 09:37:33;;;;;;;1999.90;999.90;;;;;;;34.11;50.93;95220.53;5070950;28;20174;-60
2022/06/25 09:39:58;;;;;;;1999.90;999.90;;;;;;;34.14;48.16;95217.31;5070830;28;20202;-62
2022/06/25 09:42:32;;;;;;;1999.90;999.90;;;;;;;33.41;46.31;95214.34;5070928;28;20185;-59
2022/06/25 09:45:00;;;;;;;1999.90;999.90;;;;;;;31.62;51.78;95229.00;5053991;28;20192;-62
2022/06/25 09:47:27;;;;;;;1999.90;999.90;;;;;;;31.20;56.33;95215.97;5070566;28;20182;-60
2022/06/25 09:50:12;;;;;;;1999.90;999.90;;;;;;;30.74;61.07;95230.69;5054332;28;20208;-61
2022/06/25 09:52:47;;;;;;;1999.90;999.90;;;;;;;31.79;54.60;95209.63;5071038;28;20186;-62
2022/06/25 09:55:13;;;;;;;1999.90;999.90;;;;;;;32.54;53.36;95215.34;5053949;28;20192;-62
2022/06/25 09:57:39;;;;;;;1999.90;999.90;;;;;;;33.40;48.93;95210.72;5071421;28;20177;-60
2022/06/25 10:00:05;;;;;;;1999.90;999.90;;;;;;;34.06;47.52;95218.59;5070800;28;20204;-59
2022/06/25 10:02:31;;;;;;;1999.90;999.90;;;;;;;35.19;42.23;95213.81;5070661;28;20181;-59
2022/06/25 10:05:00;;;;;;;1999.90;999.90;;;;;;;34.52;40.66;95214.56;5070413;28;20186;-59
2022/06/25 10:10:16;;;;;;;1999.90;999.90;;;;;;;32.79;46.86;95208.78;5055401;28;20208;-63
2022/06/25 10:12:42;;;;;;;1999.90;999.90;;;;;;;31.50;53.42;95205.09;5054218;28;20208;-65
2022/06/25 10:15:08;;;;;;;1999.90;999.90;;;;;;;30.23;57.70;95203.84;5071090;28;20205;-61
2022/06/25 10:17:34;;;;;;;1999.90;999.90;;;;;;;30.77;60.75;95202.16;5070323;28;20187;-59
2022/06/25 10:19:59;;;;;;;1999.90;999.90;;;;;;;32.70;50.56;95189.44;5070346;28;20178;-58
2022/06/25 10:22:27;;;;;;;1999.90;999.90;;;;;;;34.05;45.05;95197.25;5070242;28;20272;-59
2022/06/25 10:24:53;;;;;;;1999.90;999.90;;;;;;;33.38;41.80;95199.22;5070164;28;20186;-59
2022/06/25 10:27:20;;;;;;;1999.90;999.90;;;;;;;33.11;42.95;95195.03;5070068;28;20269;-59
2022/06/25 10:29:54;;;;;;;1999.90;999.90;;;;;;;33.05;45.51;95188.03;5070719;28;20178;-59
2022/06/25 10:32:20;;;;;;;1999.90;999.90;;;;;;;32.82;45.47;95178.59;5053436;28;20189;-60
2022/06/25 10:34:57;;;;;;;1999.90;999.90;;;;;;;31.23;50.23;95185.88;5069822;28;20201;-67
2022/06/25 10:37:23;;;;;;;1999.90;999.90;;;;;;;30.14;53.14;95176.03;5053507;28;20214;-67
2022/06/25 10:39:58;;;;;;;1999.90;999.90;;;;;;;29.70;55.35;95162.63;5069633;28;20201;-68
2022/06/25 10:45:15;;;;;;;1999.90;999.90;;;;;;;28.78;62.46;95163.25;5054793;28;20220;-69
2022/06/25 10:47:43;;;;;;;1999.90;999.90;;;;;;;29.33;60.63;95168.25;5070011;28;20205;-67
2022/06/25 10:50:20;;;;;;;1999.90;999.90;;;;;;;30.83;52.21;95162.56;5053459;28;20196;-66
2022/06/25 10:53:01;;;;;;;1999.90;999.90;;;;;;;30.19;52.16;95163.94;5070178;28;20217;-60
2022/06/25 10:55:27;;;;;;;1999.90;999.90;;;;;;;30.76;52.83;95166.03;5069788;28;20296;-60
2022/06/25 10:58:21;;;;;;;1999.90;999.90;;;;;;;31.79;48.00;95167.25;5069945;28;20181;-60
2022/06/25 11:00:50;;;;;;;1999.90;999.90;;;;;;;30.30;49.69;95170.13;5052938;28;20186;-60
2022/06/25 11:03:37;;;;;;;1999.90;999.90;;;;;;;32.14;47.47;95171.56;5069608;28;20295;-61
2022/06/25 11:06:34;;;;;;;1999.90;999.90;;;;;;;33.03;43.43;95165.94;5052956;28;20239;-60